Nearby METAR Reports

 

KBGR - Bangor, Maine, USA
Distance from station: E 5mi, 8km
Updated: Thu, 29-Jul-2021 10:53am EDT
Mostly cloudy
Mostly cloudy
 Wind from SSW
Wind: SSW 8 mph , 13 km/h
Temperature: 72°F , 22°C
Dew Point: 52°F , 11°C
Humidity: 50%
Barometer: 29.99 inHg , 1015.6 hPa
Clouds: Mostly cloudy
Visibility: 10 miles , 16 km
Cloud details: Few Clouds 4500 ft
Mostly cloudy 22000 ft
2021/07/29 14:53 KBGR 291453Z 21007KT 10SM FEW045 BKN220 22/11 A2999 RMK AO2 SLP154 T02220106 58009
KBHB - Bar Harbor, Maine, USA
Distance from station: SE 37mi, 59km
Updated: Thu, 29-Jul-2021 10:56am EDT
Clear
Clear
 Wind from SSW
Wind: SSW 12 mph , 19 km/h
Temperature: 72°F , 22°C
Dew Point: 48°F , 9°C
Humidity: 44%
Barometer: 30.00 inHg , 1015.9 hPa
Clouds: Clear
Visibility: 10 miles , 16 km
2021/07/29 14:56 KBHB 291456Z AUTO 20010KT 10SM CLR 22/09 A3000 RMK AO2 SLP160 T02220089 58007
 
KAUG - Augusta, Maine, USA
Distance from station: SW 55mi, 89km
Updated: Thu, 29-Jul-2021 10:53am EDT
Clear
Clear
 Wind from varies
Wind: varies 6 mph , 9 km/h
Temperature: 72°F , 22°C
Dew Point: 48°F , 9°C
Humidity: 44%
Barometer: 30.00 inHg , 1015.9 hPa
Clouds: Clear
Visibility: 10 miles , 16 km
2021/07/29 14:53 KAUG 291453Z AUTO VRB05KT 10SM CLR 22/09 A3000 RMK AO2 SLP159 T02220089 58009
KGNR - Greenville, Maine, USA
Distance from station: NW 55mi, 89km
Updated: Thu, 29-Jul-2021 10:56am EDT

 Wind from S
Wind: S 8 mph , 13 km/h
Temperature: 66°F , 19°C
Dew Point: 46°F , 8°C
Humidity: 49%
Barometer: 29.96 inHg , 1014.6 hPa
2021/07/29 14:56 KGNR 291456Z AUTO 19007KT 150V210 19/08 A2996 RMK AO1 SLP147 T01940078 58010
 
KMLT - Millinocket, Maine, USA
Distance from station: N 59mi, 95km
Updated: Thu, 29-Jul-2021 10:53am EDT
Clear
Clear
 Wind from varies
Wind: varies 6 mph , 9 km/h
Temperature: 72°F , 22°C
Dew Point: 46°F , 8°C
Humidity: 41%
Barometer: 29.98 inHg , 1015.2 hPa
Clouds: Clear
Visibility: 10 miles , 16 km
2021/07/29 14:53 KMLT 291453Z AUTO VRB05KT 10SM CLR 22/08 A2998 RMK AO2 SLP156 T02170078 58005 TSNO $
KLEW - Auburn/Lewiston, Maine, USA
Distance from station: SW 86mi, 138km
Updated: Thu, 29-Jul-2021 10:56am EDT
Clear
Clear
 Wind from SSE
Wind: SSE 8 mph , 13 km/h
Temperature: 72°F , 22°C
Dew Point: 52°F , 11°C
Humidity: 50%
Barometer: 29.99 inHg , 1015.6 hPa
Clouds: Clear
Visibility: 10 miles , 16 km
2021/07/29 14:56 KLEW 291456Z AUTO 16007KT 10SM CLR 22/11 A2999 RMK AO2 SLP162 T02220106 58015
 
KHUL - Houlton, Maine, USA
Distance from station: NNE 105mi, 169km
Updated: Thu, 29-Jul-2021 10:53am EDT
Clear
Clear
 Wind from SW
Wind: SW 13 mph , 20 km/h
Temperature: 72°F , 22°C
Dew Point: 46°F , 8°C
Humidity: 41%
Barometer: 29.94 inHg , 1013.9 hPa
Clouds: Clear
Visibility: 10 miles , 16 km
2021/07/29 14:53 KHUL 291453Z AUTO 23011KT 10SM CLR 22/08 A2994 RMK AO2 SLP140 T02220078 58007
KPWM - Portland, Maine, USA
Distance from station: SW 105mi, 170km
Updated: Thu, 29-Jul-2021 10:51am EDT
Partly cloudy
Partly cloudy
 Wind from varies
Wind: varies 5 mph , 7 km/h
Temperature: 70°F , 21°C
Dew Point: 50°F , 10°C
Humidity: 50%
Barometer: 30.00 inHg , 1015.9 hPa
Clouds: Partly cloudy
Visibility: 10 miles , 16 km
Cloud details: Few Clouds 7000 ft
Few Clouds 9000 ft
Partly cloudy 20000 ft
2021/07/29 14:51 KPWM 291451Z VRB04KT 10SM FEW070 FEW090 SCT200 21/10 A3000 RMK AO2 SLP157 T02110100 56013
 
KBML - Berlin, New Hampshire, USA
Distance from station: W 113mi, 181km
Updated: Thu, 29-Jul-2021 10:52am EDT
Partly cloudy
Partly cloudy
 Wind from calm
Wind: Calm
Temperature: 70°F , 21°C
Dew Point: 52°F , 11°C
Humidity: 53%
Barometer: 29.98 inHg , 1015.2 hPa
Clouds: Partly cloudy
Visibility: 10 miles , 16 km
Cloud details: Partly cloudy 6500 ft
2021/07/29 14:52 KBML 291452Z AUTO 00000KT 10SM SCT065 21/11 A2998 RMK AO2 SLP152 T02110106 58020
KIZG - Fryeburg, Maine, USA
Distance from station: WSW 116mi, 186km
Updated: Thu, 29-Jul-2021 10:54am EDT
Mostly cloudy
Mostly cloudy
 Wind from NE
Wind: NE 6 mph , 9 km/h
Temperature: 72°F , 22°C
Dew Point: 54°F , 12°C
Humidity: 53%
Barometer: 29.99 inHg , 1015.6 hPa
Clouds: Mostly cloudy
Visibility: 10 miles , 16 km
Cloud details: Mostly cloudy 8000 ft
2021/07/29 14:54 KIZG 291454Z AUTO 04005KT 10SM BKN080 22/12 A2999 RMK AO2 SLP155 T02170122 58017
 
KMWN - Mount Washington, New Hampshire, USA
Distance from station: WSW 123mi, 198km
Updated: Thu, 29-Jul-2021 9:53am EDT
NOT Current

 Wind from SW
Wind: SW 24 mph , 39 km/h, Gust: 32 mph , 52 km/h
Visibility: 100 miles , 160 km
2021/07/29 13:53 KMWN 291353Z 23021G28KT 100SM FEW/// SCT010 SCT040 SCT140 BKN190 07/05 RMK VIS E-SE 1 BBLO FEW E-SE
KCAR - Caribou, Maine, USA
Distance from station: NNE 148mi, 238km
Updated: Thu, 29-Jul-2021 10:54am EDT
Clear
Clear
 Wind from WSW
Wind: WSW 8 mph , 13 km/h
Temperature: 72°F , 22°C
Dew Point: 52°F , 11°C
Humidity: 50%
Barometer: 29.91 inHg , 1012.9 hPa
Clouds: Clear
Visibility: 10 miles , 16 km
2021/07/29 14:54 KCAR 291454Z AUTO 24007KT 10SM CLR 22/11 A2991 RMK AO2 SLP133 T02170106 58010